Time;durP1;ratioP1;P1;durP2;ratioP2;P2;SDS_P1;SDS_P2;PMS_P1;PMS_P2;Temp;Humidity;BMP_temperature;BMP_pressure;BME280_temperature;BME280_humidity;BME280_pressure;Samples;Min_cycle;Max_cycle;Signal;HPM_P1;HPM_P2
2022/04/14 00:01:51;;;;;;;9.37;4.47;;;;;;;9.10;68.07;93912.81;5032877;28;20048;-48
2022/04/14 00:04:17;;;;;;;10.40;4.50;;;;;;;9.03;68.54;93912.88;5032055;28;20049;-48
2022/04/14 00:06:44;;;;;;;31.85;16.15;;;;;;;9.01;68.92;93913.28;5032526;28;20291;-46
2022/04/14 00:09:11;;;;;;;20.65;9.65;;;;;;;8.97;69.23;93921.53;5030997;28;20056;-52
2022/04/14 00:11:38;;;;;;;13.90;5.93;;;;;;;8.96;69.23;93916.47;5032414;28;20047;-49
2022/04/14 00:14:06;;;;;;;9.90;4.30;;;;;;;8.84;69.30;93917.75;5031565;28;20045;-51
2022/04/14 00:16:33;;;;;;;9.88;4.15;;;;;;;8.72;69.02;93920.97;5031336;28;20654;-47
2022/04/14 00:19:00;;;;;;;9.90;4.20;;;;;;;8.66;68.90;93923.34;5014786;28;20050;-47
2022/04/14 00:21:27;;;;;;;8.20;3.90;;;;;;;8.68;68.48;93922.97;5031581;28;20052;-48
2022/04/14 00:23:53;;;;;;;9.70;3.90;;;;;;;8.73;68.69;93923.31;5032406;28;20071;-46
2022/04/14 00:26:21;;;;;;;8.13;4.17;;;;;;;8.69;69.70;93916.28;5030667;28;20051;-55
2022/04/14 00:28:48;;;;;;;9.68;4.45;;;;;;;8.70;69.10;93924.09;5032102;28;20033;-52
2022/04/14 00:31:14;;;;;;;8.73;4.43;;;;;;;8.67;69.21;93922.19;5031592;28;20406;-47
2022/04/14 00:33:41;;;;;;;11.55;4.63;;;;;;;8.68;70.01;93926.47;5032103;28;20537;-46
2022/04/14 00:36:08;;;;;;;8.13;4.43;;;;;;;8.69;69.34;93916.28;5031798;28;20076;-52
2022/04/14 00:38:35;;;;;;;12.13;5.00;;;;;;;8.73;69.68;93925.25;5031975;28;20038;-50
2022/04/14 00:41:01;;;;;;;33.63;16.20;;;;;;;8.72;69.37;93923.72;5032375;28;20042;-50
2022/04/14 00:43:33;;;;;;;21.15;10.70;;;;;;;8.76;69.81;93927.97;5030820;28;20057;-55
2022/04/14 00:46:02;;;;;;;17.23;8.15;;;;;;;8.78;69.81;93927.56;5032397;28;20040;-54
2022/04/14 00:48:30;;;;;;;15.57;6.68;;;;;;;8.74;69.65;93929.56;5031523;28;20048;-52
2022/04/14 00:50:57;;;;;;;12.47;5.93;;;;;;;8.72;68.79;93931.91;5032208;28;20040;-50
2022/04/14 00:53:24;;;;;;;10.98;5.00;;;;;;;8.74;68.87;93924.84;5031483;28;20050;-52
2022/04/14 00:55:51;;;;;;;13.75;5.85;;;;;;;8.78;69.39;93925.59;5031909;28;20041;-50
2022/04/14 00:58:19;;;;;;;13.50;6.72;;;;;;;8.78;69.60;93936.53;5031113;28;20048;-47
2022/04/14 01:00:46;;;;;;;16.38;7.72;;;;;;;8.68;70.02;93926.47;5031420;28;20064;-48
2022/04/14 01:03:15;;;;;;;15.70;6.43;;;;;;;8.63;70.62;93932.34;5031143;28;20049;-50
2022/04/14 01:05:42;;;;;;;13.98;6.15;;;;;;;8.63;70.56;93937.06;5031562;28;20037;-47
2022/04/14 01:08:10;;;;;;;15.32;8.00;;;;;;;8.59;69.79;93937.06;5031182;28;20045;-50
2022/04/14 01:10:37;;;;;;;23.60;11.88;;;;;;;8.53;69.68;93931.28;5031295;28;20110;-50
2022/04/14 01:13:04;;;;;;;17.70;7.93;;;;;;;8.55;70.32;93931.66;5031630;28;20493;-52
2022/04/14 01:15:31;;;;;;;11.83;6.13;;;;;;;8.51;70.01;93935.56;5030704;28;20044;-53
2022/04/14 01:17:59;;;;;;;12.38;5.40;;;;;;;8.44;69.46;93938.38;5030153;28;20037;-46
2022/04/14 01:20:26;;;;;;;10.52;5.03;;;;;;;8.35;70.01;93938.78;5030817;28;20064;-46
2022/04/14 01:22:57;;;;;;;8.95;4.90;;;;;;;8.25;69.93;93942.34;5030778;28;20048;-47
2022/04/14 01:25:26;;;;;;;9.90;5.38;;;;;;;8.27;69.74;93950.94;5031025;28;20045;-49
2022/04/14 01:27:53;;;;;;;10.20;5.30;;;;;;;8.22;70.27;93948.63;5030903;28;20041;-50
2022/04/14 01:30:21;;;;;;;10.13;5.25;;;;;;;8.26;69.85;93946.66;5030813;28;20041;-50
2022/04/14 01:32:48;;;;;;;11.27;5.30;;;;;;;8.19;70.10;93953.72;5030816;28;20516;-47
2022/04/14 01:35:16;;;;;;;10.73;5.18;;;;;;;8.18;70.20;93960.34;5030555;28;20049;-47
2022/04/14 01:37:43;;;;;;;9.55;5.32;;;;;;;8.13;70.73;93946.31;5030860;28;20439;-46
2022/04/14 01:40:10;;;;;;;8.27;4.80;;;;;;;8.10;70.45;93950.63;5030340;28;20042;-48
2022/04/14 01:42:37;;;;;;;8.52;5.50;;;;;;;8.10;71.18;93953.38;5027480;28;20049;-47
2022/04/14 01:45:10;;;;;;;9.48;5.65;;;;;;;8.12;71.30;93947.53;5046126;28;20065;-52
2022/04/14 01:47:39;;;;;;;11.57;5.57;;;;;;;8.03;72.02;93950.69;5049761;28;20425;-46
2022/04/14 01:50:07;;;;;;;12.27;5.70;;;;;;;8.02;72.20;93949.13;5050957;28;20086;-48
2022/04/14 01:52:35;;;;;;;12.50;5.20;;;;;;;7.96;72.11;93951.50;5049322;28;21731;-46
2022/04/14 01:55:03;;;;;;;8.45;4.68;;;;;;;7.91;72.08;93949.19;5049809;28;20048;-48
2022/04/14 01:57:30;;;;;;;8.00;4.93;;;;;;;7.87;72.46;93953.88;5050292;28;20501;-49
2022/04/14 01:59:58;;;;;;;8.70;4.57;;;;;;;7.79;72.63;93952.38;5050770;28;20045;-54
2022/04/14 02:02:25;;;;;;;11.50;4.65;;;;;;;7.74;72.20;93958.22;5050185;28;20049;-54
2022/04/14 02:04:52;;;;;;;11.67;4.80;;;;;;;7.76;72.78;93962.09;5049764;28;20504;-49
2022/04/14 02:07:19;;;;;;;11.00;5.10;;;;;;;7.72;72.08;93957.84;5043910;28;20057;-49
2022/04/14 02:09:46;;;;;;;9.32;5.10;;;;;;;7.71;72.61;93959.81;5030401;28;20041;-48
2022/04/14 02:12:16;;;;;;;10.95;4.90;;;;;;;7.71;72.70;93962.53;5029992;28;20514;-48
2022/04/14 02:14:43;;;;;;;10.25;4.97;;;;;;;7.67;73.34;93958.28;5030248;28;20060;-46
2022/04/14 02:17:12;;;;;;;9.73;4.80;;;;;;;7.67;73.14;93955.53;5012451;28;20060;-47
2022/04/14 02:19:39;;;;;;;11.25;5.20;;;;;;;7.67;73.33;93956.31;5029479;28;20405;-46
2022/04/14 02:22:06;;;;;;;12.23;5.35;;;;;;;7.70;73.75;93958.22;5028586;28;20041;-47
2022/04/14 02:24:33;;;;;;;11.45;5.22;;;;;;;7.69;73.73;93955.91;5028855;28;20064;-58
2022/04/14 02:26:59;;;;;;;10.25;5.10;;;;;;;7.62;73.55;93961.41;5029725;28;20044;-53
2022/04/14 02:29:26;;;;;;;9.23;4.90;;;;;;;7.29;72.70;93964.22;5028697;28;20048;-52
2022/04/14 02:31:57;;;;;;;9.40;4.85;;;;;;;7.16;72.95;93969.31;5027849;28;20079;-47
2022/04/14 02:34:26;;;;;;;8.25;4.90;;;;;;;7.18;73.23;93966.16;5029007;28;20096;-47
2022/04/14 02:36:54;;;;;;;8.75;4.50;;;;;;;7.20;73.67;93967.34;5029072;28;20505;-52
2022/04/14 02:39:21;;;;;;;10.50;4.40;;;;;;;7.19;74.12;93968.50;5028929;28;20045;-48
2022/04/14 02:41:48;;;;;;;10.50;4.70;;;;;;;7.20;73.92;93972.00;5027699;28;20038;-48
2022/04/14 02:44:14;;;;;;;8.85;4.80;;;;;;;7.19;73.96;93973.19;5028501;28;20053;-49
2022/04/14 02:46:41;;;;;;;10.05;4.68;;;;;;;7.19;73.95;93971.25;5028611;28;20044;-50
2022/04/14 02:49:08;;;;;;;12.68;4.72;;;;;;;7.12;74.71;93971.28;5028863;28;20053;-46
2022/04/14 02:51:35;;;;;;;9.23;4.60;;;;;;;7.00;73.88;93967.00;5027573;28;20425;-50
2022/04/14 02:54:03;;;;;;;8.57;4.23;;;;;;;6.94;73.63;93968.56;5029234;28;20490;-47
2022/04/14 02:56:29;;;;;;;10.15;4.97;;;;;;;6.92;73.62;93970.91;5028818;28;20037;-47
2022/04/14 02:58:56;;;;;;;10.90;5.10;;;;;;;6.93;73.82;93972.44;5028631;28;20049;-46
2022/04/14 03:01:23;;;;;;;8.95;4.60;;;;;;;6.94;74.37;93976.75;5028428;28;20049;-48
2022/04/14 03:03:50;;;;;;;10.45;4.80;;;;;;;6.91;74.65;93982.19;5027306;28;20045;-47
2022/04/14 03:06:16;;;;;;;9.37;4.30;;;;;;;6.93;74.72;93975.16;5010457;28;20050;-47
2022/04/14 03:08:43;;;;;;;14.13;5.50;;;;;;;6.96;75.24;93977.13;5027872;28;20049;-53
2022/04/14 03:11:12;;;;;;;11.38;4.90;;;;;;;6.85;75.28;93979.06;5027304;28;20043;-47
2022/04/14 03:13:39;;;;;;;10.18;4.80;;;;;;;6.82;74.66;93974.38;5027369;28;20049;-52
2022/04/14 03:16:07;;;;;;;10.55;4.75;;;;;;;6.71;74.88;93973.63;5028815;28;20053;-47
2022/04/14 03:18:34;;;;;;;12.93;7.13;;;;;;;6.73;74.32;93984.91;4988115;28;1143323;-52
2022/04/14 03:21:01;;;;;;;20.40;11.13;;;;;;;6.74;75.45;93981.00;5029636;28;20045;-53
2022/04/14 03:23:28;;;;;;;14.45;7.57;;;;;;;6.73;75.71;93979.47;5028857;28;20049;-51
2022/04/14 03:25:55;;;;;;;13.82;5.97;;;;;;;6.76;76.16;93978.66;5029219;28;20123;-48
2022/04/14 03:28:21;;;;;;;11.82;4.82;;;;;;;6.73;75.09;93982.97;5028691;28;20095;-46
2022/04/14 03:30:48;;;;;;;9.70;4.70;;;;;;;6.57;75.17;93988.00;5029309;28;20517;-48
2022/04/14 03:33:15;;;;;;;10.88;5.07;;;;;;;6.53;74.56;93977.09;5028638;28;20536;-47
2022/04/14 03:35:42;;;;;;;11.73;5.53;;;;;;;6.54;75.37;93983.31;5028958;28;20041;-54
2022/04/14 03:38:08;;;;;;;10.98;5.32;;;;;;;6.56;75.35;93986.44;5028709;28;20648;-53
2022/04/14 03:40:55;;;;;;;10.32;4.93;;;;;;;6.44;76.10;93987.63;5029076;28;20414;-48
2022/04/14 03:43:22;;;;;;;11.23;5.70;;;;;;;6.42;77.06;93980.97;5027455;28;20050;-51
2022/04/14 03:45:49;;;;;;;11.73;6.60;;;;;;;6.41;77.56;93985.66;5029116;28;20386;-47
2022/04/14 03:48:15;;;;;;;14.68;6.47;;;;;;;6.37;77.72;93996.53;5029035;28;20064;-47
2022/04/14 03:50:42;;;;;;;10.48;5.40;;;;;;;6.18;76.02;93991.47;5028954;28;20042;-51
2022/04/14 03:53:09;;;;;;;13.90;5.90;;;;;;;6.08;76.04;93993.00;5028749;28;20491;-52
2022/04/14 03:55:36;;;;;;;11.00;6.37;;;;;;;6.11;76.12;93994.94;5028089;28;20053;-52
2022/04/14 03:58:02;;;;;;;12.55;5.80;;;;;;;6.17;76.48;94006.22;5029115;28;20042;-49
2022/04/14 04:00:29;;;;;;;12.10;5.80;;;;;;;6.19;76.42;93998.44;5028649;28;20045;-47
2022/04/14 04:02:56;;;;;;;12.55;6.40;;;;;;;6.14;75.93;94001.56;5029027;28;20041;-47
2022/04/14 04:05:23;;;;;;;12.70;6.05;;;;;;;6.18;75.94;94003.13;5011322;28;20049;-54
2022/04/14 04:07:49;;;;;;;12.27;6.60;;;;;;;6.20;76.16;94002.75;5028684;28;20085;-50
2022/04/14 04:10:16;;;;;;;11.75;7.00;;;;;;;6.22;76.22;94000.41;5028818;28;20049;-51
2022/04/14 04:12:43;;;;;;;13.65;7.30;;;;;;;6.24;77.34;94009.00;5028810;28;20458;-49
2022/04/14 04:15:11;;;;;;;17.33;8.00;;;;;;;6.22;77.36;94002.34;5028683;28;20064;-47
2022/04/14 04:17:41;;;;;;;14.18;7.35;;;;;;;6.25;77.16;93999.63;5029067;28;20048;-48
2022/04/14 04:20:08;;;;;;;14.63;6.90;;;;;;;6.28;77.06;94003.53;5031383;28;20059;-46
2022/04/14 04:22:35;;;;;;;13.35;6.93;;;;;;;6.26;77.06;94001.22;5031578;28;20105;-45
2022/04/14 04:25:03;;;;;;;16.40;7.40;;;;;;;6.25;76.70;94001.59;5030795;28;20045;-50
2022/04/14 04:27:30;;;;;;;20.58;8.65;;;;;;;6.24;76.82;94003.53;5030743;28;20052;-48
2022/04/14 04:29:57;;;;;;;18.08;8.52;;;;;;;6.24;77.17;94011.72;5032041;28;20398;-46
2022/04/14 04:32:24;;;;;;;16.60;8.07;;;;;;;6.21;76.80;94012.47;5031710;28;20056;-51
2022/04/14 04:34:50;;;;;;;13.63;7.20;;;;;;;6.23;76.79;94015.59;5031890;28;20049;-46
2022/04/14 04:37:17;;;;;;;15.13;6.53;;;;;;;6.12;76.42;94017.53;5031716;28;20045;-46
2022/04/14 04:39:44;;;;;;;14.07;7.00;;;;;;;6.19;76.20;94006.63;5030396;28;20050;-52
2022/04/14 04:42:10;;;;;;;14.10;7.60;;;;;;;6.22;76.48;93999.63;5031731;28;20045;-51
2022/04/14 04:44:38;;;;;;;14.60;7.73;;;;;;;6.19;76.72;94007.41;5031733;28;20042;-46
2022/04/14 04:47:05;;;;;;;15.30;7.10;;;;;;;6.20;76.86;94008.97;5031368;28;20049;-53
2022/04/14 04:49:32;;;;;;;13.43;6.50;;;;;;;6.27;77.55;94010.16;5031650;28;20048;-48
2022/04/14 04:52:00;;;;;;;14.85;6.70;;;;;;;6.38;77.30;94011.75;5030520;28;20044;-48
2022/04/14 04:54:26;;;;;;;14.10;6.90;;;;;;;6.35;76.71;94014.47;5014095;28;20041;-48
2022/04/14 04:56:53;;;;;;;16.23;6.53;;;;;;;6.39;75.96;94020.69;5031607;28;20038;-49
2022/04/14 04:59:20;;;;;;;13.45;6.60;;;;;;;6.47;75.37;94021.50;5031166;28;20063;-51
2022/04/14 05:01:47;;;;;;;12.73;6.45;;;;;;;6.58;74.75;94022.31;5017172;28;20049;-52
2022/04/14 05:04:14;;;;;;;12.45;6.30;;;;;;;6.67;74.26;94030.88;5011682;28;20042;-51
2022/04/14 05:06:41;;;;;;;12.82;6.38;;;;;;;6.74;73.92;94024.63;5012460;28;20045;-52
2022/04/14 05:09:07;;;;;;;10.03;6.00;;;;;;;6.75;75.02;94031.66;5031002;28;20053;-50
2022/04/14 05:11:34;;;;;;;12.73;6.22;;;;;;;6.73;75.80;94031.28;5030413;28;20914;-50
2022/04/14 05:14:01;;;;;;;14.95;8.18;;;;;;;6.80;76.52;94028.53;5044625;28;20044;-52
2022/04/14 05:16:29;;;;;;;15.73;7.18;;;;;;;6.71;77.13;94028.94;5051298;28;20049;-46
2022/04/14 05:18:55;;;;;;;13.77;7.60;;;;;;;6.93;75.42;94031.69;5050925;28;20041;-49
2022/04/14 05:21:22;;;;;;;15.23;7.03;;;;;;;7.02;74.39;94031.28;5050889;28;20055;-48
2022/04/14 05:23:49;;;;;;;16.45;8.07;;;;;;;6.98;73.25;94028.56;5049830;28;20071;-53
2022/04/14 05:26:16;;;;;;;17.92;8.50;;;;;;;6.94;73.61;94033.22;5050610;28;20053;-52
2022/04/14 05:28:42;;;;;;;25.30;9.63;;;;;;;6.68;72.97;94035.19;5042446;28;20045;-55
2022/04/14 05:31:09;;;;;;;19.73;7.90;;;;;;;6.71;72.11;94037.13;5028354;28;20057;-51
2022/04/14 05:33:36;;;;;;;14.33;6.77;;;;;;;6.53;72.61;94041.75;5031149;28;20076;-50
2022/04/14 05:36:03;;;;;;;14.52;6.75;;;;;;;6.67;72.79;94035.56;5030715;28;20714;-51
2022/04/14 05:38:31;;;;;;;14.82;6.55;;;;;;;6.68;72.93;94039.84;5030501;28;20045;-51
2022/04/14 05:40:57;;;;;;;12.95;6.22;;;;;;;6.91;73.07;94034.03;5013469;28;20037;-50
2022/04/14 05:43:26;;;;;;;11.25;5.93;;;;;;;7.08;72.48;94035.97;5030582;28;20042;-52
2022/04/14 05:45:57;;;;;;;15.30;5.90;;;;;;;7.10;73.16;94039.09;5013010;28;20044;-56
2022/04/14 05:48:23;;;;;;;11.63;6.10;;;;;;;7.46;72.96;94038.28;5029330;28;20110;-51
2022/04/14 05:50:51;;;;;;;10.77;6.43;;;;;;;7.72;72.00;94043.28;5030628;28;20501;-52
2022/04/14 05:53:28;;;;;;;12.98;6.38;;;;;;;7.79;71.50;94040.56;5030456;28;20498;-48
2022/04/14 05:55:55;;;;;;;17.48;8.02;;;;;;;8.07;70.34;94033.44;5030701;28;20041;-53
2022/04/14 05:58:21;;;;;;;20.07;7.87;;;;;;;8.20;70.29;94037.28;5028827;28;20049;-52
2022/04/14 06:00:48;;;;;;;20.60;7.75;;;;;;;8.29;70.35;94038.81;5030252;28;20048;-49
2022/04/14 06:03:16;;;;;;;16.83;7.07;;;;;;;8.56;70.19;94045.34;5029946;28;20057;-52
2022/04/14 06:05:43;;;;;;;15.60;6.95;;;;;;;8.85;68.94;94041.66;5029136;28;20076;-50
2022/04/14 06:08:09;;;;;;;12.90;6.80;;;;;;;9.17;68.54;94047.66;5029757;28;20049;-46
2022/04/14 06:10:36;;;;;;;14.87;7.00;;;;;;;9.15;69.06;94050.03;5030613;28;20051;-50
2022/04/14 06:13:03;;;;;;;18.35;7.60;;;;;;;9.60;67.78;94043.81;5030196;28;20041;-45
2022/04/14 06:15:31;;;;;;;15.48;6.97;;;;;;;9.99;66.90;94043.38;5028487;28;20433;-46
2022/04/14 06:17:58;;;;;;;16.23;7.97;;;;;;;9.97;66.63;94051.25;5029660;28;20037;-45
2022/04/14 06:20:25;;;;;;;18.80;8.63;;;;;;;9.97;66.50;94053.97;5029692;28;20049;-51
2022/04/14 06:22:52;;;;;;;14.27;7.40;;;;;;;10.03;66.56;94053.56;5029646;28;20094;-51
2022/04/14 06:25:22;;;;;;;12.95;6.53;;;;;;;10.14;66.22;94059.69;5029800;28;20049;-54
2022/04/14 06:27:50;;;;;;;16.23;6.65;;;;;;;10.47;65.44;94058.16;5029749;28;20041;-51
2022/04/14 06:30:18;;;;;;;17.35;6.82;;;;;;;10.65;64.61;94048.91;5029737;28;20411;-54
2022/04/14 06:33:15;;;;;;;19.13;6.88;;;;;;;10.68;64.45;94050.81;5028548;28;20045;-51
2022/04/14 06:35:43;;;;;;;15.33;7.00;;;;;;;11.58;62.15;94055.75;5024739;28;20056;-50
2022/04/14 06:38:10;;;;;;;16.08;7.18;;;;;;;13.64;56.71;94053.13;5028087;28;20053;-53
2022/04/14 06:40:37;;;;;;;15.57;7.00;;;;;;;15.60;53.28;94046.00;5035227;28;20041;-54
2022/04/14 06:43:03;;;;;;;14.45;6.93;;;;;;;17.23;48.19;94048.19;5037527;28;20059;-49
2022/04/14 06:45:31;;;;;;;14.45;6.78;;;;;;;19.21;44.07;94053.75;5044355;28;20037;-51
2022/04/14 06:47:59;;;;;;;20.57;7.97;;;;;;;19.86;42.20;94048.69;5049598;28;20041;-48
2022/04/14 06:50:26;;;;;;;14.45;7.25;;;;;;;20.43;41.92;94045.09;5048741;28;20049;-50
2022/04/14 06:52:53;;;;;;;14.85;6.72;;;;;;;20.32;42.23;94051.97;5049462;28;20045;-45
2022/04/14 06:55:23;;;;;;;18.40;7.10;;;;;;;18.81;45.50;94049.97;5049397;28;20053;-48
2022/04/14 06:57:50;;;;;;;28.77;7.63;;;;;;;21.12;40.88;94045.84;5047922;28;20051;-50
2022/04/14 07:00:18;;;;;;;15.63;6.60;;;;;;;21.53;40.55;94052.41;5049380;28;20067;-50
2022/04/14 07:02:52;;;;;;;16.95;6.80;;;;;;;21.52;40.90;94048.06;5049037;28;20049;-54
2022/04/14 07:05:20;;;;;;;12.70;6.53;;;;;;;21.42;41.62;94057.78;5049002;28;20041;-50
2022/04/14 07:07:47;;;;;;;26.00;8.27;;;;;;;17.82;49.57;94058.53;5039774;28;20274;-49
2022/04/14 07:10:14;;;;;;;18.33;7.40;;;;;;;18.10;49.03;94065.72;5028930;28;20053;-49
2022/04/14 07:12:42;;;;;;;38.17;8.93;;;;;;;19.05;46.64;94060.44;5029486;28;20115;-48
2022/04/14 07:15:10;;;;;;;20.42;6.85;;;;;;;18.60;48.24;94059.25;5027277;28;20057;-52
2022/04/14 07:17:37;;;;;;;15.38;7.07;;;;;;;17.43;50.79;94056.13;5029450;28;20041;-53
2022/04/14 07:20:06;;;;;;;19.25;7.60;;;;;;;19.18;47.34;94057.50;5029075;28;20084;-53
2022/04/14 07:22:50;;;;;;;17.75;7.65;;;;;;;19.32;47.02;94060.38;5029088;28;20046;-47
2022/04/14 07:25:23;;;;;;;13.67;7.50;;;;;;;20.91;42.03;94053.38;5028868;28;20065;-49
2022/04/14 07:27:52;;;;;;;12.35;6.80;;;;;;;21.59;41.34;94062.88;5028856;28;20094;-55
2022/04/14 07:30:19;;;;;;;15.63;7.00;;;;;;;23.92;36.71;94060.97;5028903;28;20053;-54
2022/04/14 07:32:47;;;;;;;14.38;6.90;;;;;;;23.01;38.22;94055.81;5029203;28;20102;-50
2022/04/14 07:35:13;;;;;;;13.52;7.40;;;;;;;24.09;36.13;94061.06;5028716;28;20056;-49
2022/04/14 07:37:40;;;;;;;14.07;6.90;;;;;;;22.42;39.67;94059.75;5029424;28;20059;-52
2022/04/14 07:40:08;;;;;;;13.43;6.95;;;;;;;22.45;38.76;94058.00;5029537;28;20050;-48
2022/04/14 07:42:40;;;;;;;16.17;7.78;;;;;;;21.32;40.53;94065.47;5028774;28;21536;-48
2022/04/14 07:45:08;;;;;;;17.15;7.53;;;;;;;21.32;41.13;94067.50;5029052;28;20060;-47
2022/04/14 07:47:42;;;;;;;16.42;7.55;;;;;;;19.94;44.01;94061.03;5028598;28;20120;-52
2022/04/14 07:50:11;;;;;;;16.50;7.97;;;;;;;17.72;49.49;94068.84;5028538;28;20044;-48
2022/04/14 07:52:49;;;;;;;15.25;8.45;;;;;;;15.80;56.18;94072.66;5029485;28;20417;-46
2022/04/14 07:55:20;;;;;;;16.70;8.82;;;;;;;17.71;51.67;94065.31;5032449;28;20491;-48
2022/04/14 07:57:47;;;;;;;18.70;8.43;;;;;;;20.30;45.61;94073.19;5032994;28;20045;-50
2022/04/14 08:00:18;;;;;;;16.60;8.55;;;;;;;20.39;45.03;94075.94;5032299;28;20056;-51
2022/04/14 08:02:56;;;;;;;15.37;8.60;;;;;;;19.21;46.84;94074.00;5031552;28;20048;-49
2022/04/14 08:05:33;;;;;;;15.35;7.40;;;;;;;22.65;40.72;94071.19;5032380;28;20079;-50
2022/04/14 08:08:02;;;;;;;16.20;7.68;;;;;;;21.19;41.70;94069.81;5032445;28;20552;-53
2022/04/14 08:10:29;;;;;;;13.93;6.95;;;;;;;20.54;43.39;94078.75;5032292;28;20076;-49
2022/04/14 08:12:57;;;;;;;16.00;7.45;;;;;;;19.35;46.30;94078.91;5032553;28;20068;-50
2022/04/14 08:15:25;;;;;;;13.33;7.73;;;;;;;18.69;47.44;94082.28;5032267;28;20049;-51
2022/04/14 08:17:52;;;;;;;14.52;7.25;;;;;;;19.55;45.20;94078.38;5032773;28;20041;-49
2022/04/14 08:20:19;;;;;;;15.73;7.82;;;;;;;18.94;46.47;94092.31;5032213;28;20132;-48
2022/04/14 08:22:47;;;;;;;19.52;8.18;;;;;;;18.80;47.20;94089.41;5032705;28;20541;-54
2022/04/14 08:25:17;;;;;;;14.48;7.93;;;;;;;20.14;44.32;94079.94;5031649;28;20053;-51
2022/04/14 08:27:46;;;;;;;20.33;8.60;;;;;;;18.12;48.79;94091.03;5032265;28;20037;-50
2022/04/14 08:30:18;;;;;;;20.95;8.18;;;;;;;20.77;43.28;94087.59;5031646;28;20053;-52
2022/04/14 08:32:46;;;;;;;15.18;7.32;;;;;;;21.83;41.00;94093.47;5032244;28;20513;-55
2022/04/14 08:35:14;;;;;;;15.43;7.00;;;;;;;21.25;41.54;94084.63;5030532;28;20057;-52
2022/04/14 08:37:43;;;;;;;14.50;8.18;;;;;;;23.21;37.59;94094.22;5031048;28;20044;-49
2022/04/14 08:40:13;;;;;;;15.87;7.67;;;;;;;23.63;38.77;94092.81;5031947;28;20394;-50
2022/04/14 08:42:51;;;;;;;13.63;7.63;;;;;;;22.55;39.60;94090.16;5032071;28;20049;-50
2022/04/14 08:45:21;;;;;;;16.48;7.97;;;;;;;23.84;36.96;94087.88;5031619;28;20042;-52
2022/04/14 08:47:49;;;;;;;13.68;8.02;;;;;;;22.50;38.64;94085.28;5032314;28;20061;-52
2022/04/14 08:50:17;;;;;;;12.85;7.10;;;;;;;25.36;34.57;94078.66;5030112;28;20049;-56
2022/04/14 08:52:43;;;;;;;11.80;7.20;;;;;;;24.56;35.51;94088.84;5032180;28;20037;-50
2022/04/14 08:55:11;;;;;;;13.70;7.88;;;;;;;23.08;37.89;94086.22;5029898;28;20055;-53
2022/04/14 08:57:41;;;;;;;11.23;6.68;;;;;;;24.32;36.32;94087.16;5032201;28;20041;-54
2022/04/14 09:00:11;;;;;;;13.73;7.57;;;;;;;22.02;40.64;94089.19;5031356;28;20053;-52
2022/04/14 09:02:38;;;;;;;13.68;7.45;;;;;;;22.43;39.55;94082.88;5031216;28;20076;-54
2022/04/14 09:05:06;;;;;;;11.93;7.10;;;;;;;26.16;33.52;94085.78;5031020;28;20505;-55
2022/04/14 09:07:33;;;;;;;12.90;7.03;;;;;;;27.10;30.84;94078.34;5030988;28;20487;-53
2022/04/14 09:10:00;;;;;;;14.30;7.55;;;;;;;25.67;33.52;94072.78;5031475;28;20501;-47
2022/04/14 09:12:29;;;;;;;14.45;7.10;;;;;;;28.20;28.85;94072.91;5031289;28;20061;-50
2022/04/14 09:14:55;;;;;;;10.15;6.47;;;;;;;27.92;29.71;94073.16;5031640;28;20052;-48
2022/04/14 09:17:22;;;;;;;13.37;7.50;;;;;;;24.46;34.87;94084.69;5029691;28;20475;-52
2022/04/14 09:19:49;;;;;;;11.55;7.63;;;;;;;23.89;36.62;94086.41;5031315;28;20045;-52
2022/04/14 09:22:16;;;;;;;15.02;7.65;;;;;;;24.72;35.63;94079.72;5030843;28;20052;-51
2022/04/14 09:24:52;;;;;;;13.55;7.72;;;;;;;26.37;33.29;94069.38;5031695;28;20043;-54
2022/04/14 09:27:28;;;;;;;11.48;7.57;;;;;;;22.93;38.36;94080.66;5030817;28;20041;-51
2022/04/14 09:30:17;;;;;;;12.27;8.13;;;;;;;22.44;40.18;94076.06;5031623;28;20402;-50
2022/04/14 09:32:44;;;;;;;15.18;8.27;;;;;;;24.76;36.37;94073.13;5030744;28;20038;-56
2022/04/14 09:35:19;;;;;;;15.90;7.90;;;;;;;26.70;31.58;94077.75;5030695;28;20498;-51
2022/04/14 09:38:03;;;;;;;13.13;7.25;;;;;;;27.29;30.36;94072.09;5031036;28;20516;-46
2022/04/14 09:40:30;;;;;;;14.07;8.02;;;;;;;23.72;38.72;94077.84;5030839;28;20045;-53
2022/04/14 09:42:57;;;;;;;13.60;8.47;;;;;;;22.60;39.66;94078.28;5031286;28;20033;-51
2022/04/14 09:45:26;;;;;;;13.02;8.00;;;;;;;23.05;39.29;94081.59;5030687;28;20049;-48
2022/04/14 09:48:15;;;;;;;14.40;8.48;;;;;;;22.23;40.88;94073.19;5030694;28;20041;-49
2022/04/14 09:50:47;;;;;;;13.43;8.68;;;;;;;24.76;36.09;94070.31;5030290;28;20372;-54
2022/04/14 09:53:15;;;;;;;14.10;8.15;;;;;;;26.13;32.38;94072.78;5030241;28;20045;-53
2022/04/14 09:55:55;;;;;;;15.60;9.20;;;;;;;22.36;39.05;94074.94;5030943;28;20049;-49
2022/04/14 09:58:23;;;;;;;14.48;8.23;;;;;;;25.91;34.11;94069.47;5030192;28;20053;-48
2022/04/14 10:00:52;;;;;;;16.60;9.13;;;;;;;25.05;35.24;94071.91;5030803;28;20049;-46
2022/04/14 10:03:21;;;;;;;13.27;8.00;;;;;;;26.90;31.54;94061.78;5030545;28;20053;-50
2022/04/14 10:05:56;;;;;;;16.23;8.68;;;;;;;23.41;37.34;94068.19;5030690;28;20044;-48
2022/04/14 10:08:24;;;;;;;12.63;8.40;;;;;;;22.92;38.38;94067.19;5029764;28;20049;-50
2022/04/14 10:11:09;;;;;;;14.00;8.80;;;;;;;21.65;41.25;94063.72;5029493;28;20057;-49
2022/04/14 10:13:38;;;;;;;16.17;8.90;;;;;;;22.29;39.17;94062.13;5018460;28;20410;-51
2022/04/14 10:16:05;;;;;;;12.57;7.95;;;;;;;24.13;36.07;94063.63;5009259;28;20053;-48
2022/04/14 10:18:33;;;;;;;13.48;8.20;;;;;;;24.83;33.43;94058.59;5023698;28;20055;-49
2022/04/14 10:21:00;;;;;;;14.87;8.13;;;;;;;23.52;36.57;94053.50;5050751;28;20053;-53
2022/04/14 10:23:27;;;;;;;12.48;7.40;;;;;;;25.24;33.27;94055.41;5049935;28;20051;-50
2022/04/14 10:25:55;;;;;;;13.43;7.88;;;;;;;25.34;33.05;94048.25;5050495;28;20049;-50
2022/04/14 10:28:26;;;;;;;13.35;8.00;;;;;;;24.10;35.18;94059.00;5043416;28;20460;-51
2022/04/14 10:30:56;;;;;;;12.65;7.75;;;;;;;22.76;36.23;94056.56;5029294;28;20047;-50
2022/04/14 10:33:23;;;;;;;11.80;6.50;;;;;;;27.99;29.11;94049.25;5029347;28;20056;-52
2022/04/14 10:35:52;;;;;;;12.27;7.10;;;;;;;25.36;32.33;94047.75;5030246;28;20046;-50
2022/04/14 10:38:34;;;;;;;13.02;7.00;;;;;;;29.78;26.29;94041.88;5029826;28;20083;-55
2022/04/14 10:41:18;;;;;;;12.38;7.30;;;;;;;24.23;33.88;94055.78;5028768;28;20063;-52
2022/04/14 10:43:46;;;;;;;11.77;7.30;;;;;;;24.22;33.56;94051.44;5029573;28;20791;-50
2022/04/14 10:46:17;;;;;;;10.13;6.13;;;;;;;27.93;28.21;94042.91;5029332;28;20052;-56
2022/04/14 10:48:45;;;;;;;13.65;7.22;;;;;;;27.91;27.37;94048.31;5030135;28;20054;-55
2022/04/14 10:51:19;;;;;;;13.10;6.40;;;;;;;26.65;30.32;94041.16;5029482;28;20048;-50
2022/04/14 10:53:50;;;;;;;11.68;6.40;;;;;;;28.63;27.51;94035.53;5029949;28;20045;-52
2022/04/14 10:56:45;;;;;;;11.27;6.60;;;;;;;25.92;31.51;94033.69;5029524;28;20051;-52
2022/04/14 10:59:14;;;;;;;13.17;5.90;;;;;;;28.46;27.65;94034.91;5029311;28;20049;-51
2022/04/14 11:01:47;;;;;;;11.40;6.60;;;;;;;25.03;32.12;94035.16;5028472;28;20048;-51
2022/04/14 11:04:31;;;;;;;9.95;6.85;;;;;;;26.95;28.68;94030.00;5028774;28;20126;-51
2022/04/14 11:07:01;;;;;;;12.23;7.20;;;;;;;29.04;26.28;94034.47;5029773;28;20049;-50
2022/04/14 11:09:41;;;;;;;11.80;7.45;;;;;;;27.79;27.71;94027.88;5029281;28;20045;-49
2022/04/14 11:12:13;;;;;;;11.23;8.13;;;;;;;26.05;30.72;94027.53;5028998;28;20049;-50
2022/04/14 11:14:45;;;;;;;13.18;8.30;;;;;;;23.60;35.10;94031.41;5029685;28;20081;-50
2022/04/14 11:17:56;;;;;;;12.52;7.97;;;;;;;26.04;30.61;94026.00;5029428;28;20042;-50
2022/04/14 11:20:27;;;;;;;13.88;7.25;;;;;;;26.35;29.96;94022.06;5028664;28;20546;-49
2022/04/14 11:23:09;;;;;;;11.50;7.45;;;;;;;24.43;32.53;94027.56;5029732;28;20041;-48
2022/04/14 11:25:38;;;;;;;15.87;8.37;;;;;;;24.28;32.91;94022.13;5028712;28;20525;-51
2022/04/14 11:28:19;;;;;;;11.35;8.40;;;;;;;22.35;36.42;94029.41;5029997;28;20053;-53
2022/04/14 11:30:50;;;;;;;11.88;7.15;;;;;;;23.98;34.07;94021.72;5033180;28;20072;-52
2022/04/14 11:33:31;;;;;;;11.10;6.80;;;;;;;24.13;33.42;94030.75;5031626;28;20052;-51
2022/04/14 11:36:22;;;;;;;13.65;7.43;;;;;;;24.17;33.31;94016.50;5033750;28;20478;-46
2022/04/14 11:39:05;;;;;;;11.87;7.07;;;;;;;24.74;32.62;94014.69;5032780;28;21675;-50
2022/04/14 11:41:50;;;;;;;12.27;7.60;;;;;;;23.76;33.89;94016.72;5033063;28;20415;-50